Time;durP1;ratioP1;P1;durP2;ratioP2;P2;SDS_P1;SDS_P2;PMS_P1;PMS_P2;Temp;Humidity;BMP_temperature;BMP_pressure;BME280_temperature;BME280_humidity;BME280_pressure;Samples;Min_cycle;Max_cycle;Signal;HPM_P1;HPM_P2
2022/08/03 00:01:17;;;;;;;11.00;6.40;;;;;;;;;;4869211;29;20158;-77
2022/08/03 00:03:43;;;;;;;6.80;6.28;;;;;;;;;;4887306;29;20364;-78
2022/08/03 00:06:09;;;;;;;8.70;6.90;;;;;;;;;;4874838;29;20502;-79
2022/08/03 00:08:37;;;;;;;11.25;7.57;;;;;;;;;;4876754;29;20073;-78
2022/08/03 00:11:05;;;;;;;8.32;7.05;;;;;;;;;;4877273;29;20128;-79
2022/08/03 00:13:31;;;;;;;11.15;7.00;;;;;;;;;;4879931;29;20048;-78
2022/08/03 00:15:57;;;;;;;10.77;7.47;;;;;;;;;;4878358;29;20049;-78
2022/08/03 00:18:23;;;;;;;8.38;7.13;;;;;;;;;;4888536;29;20053;-79
2022/08/03 00:20:49;;;;;;;11.25;6.78;;;;;;;;;;4889826;29;20053;-79
2022/08/03 00:23:15;;;;;;;12.63;7.53;;;;;;;;;;4881197;29;20139;-78
2022/08/03 00:25:41;;;;;;;10.95;6.60;;;;;;;;;;4879583;29;20163;-80
2022/08/03 00:28:07;;;;;;;9.50;7.03;;;;;;;;;;4879698;29;20056;-78
2022/08/03 00:30:33;;;;;;;11.07;7.20;;;;;;;;;;4879397;29;20064;-78
2022/08/03 00:32:59;;;;;;;7.55;6.75;;;;;;;;;;4879266;29;20212;-79
2022/08/03 00:35:25;;;;;;;12.32;6.57;;;;;;;;;;4879407;29;20048;-78
2022/08/03 00:37:51;;;;;;;8.00;7.20;;;;;;;;;;4862410;29;20598;-78
2022/08/03 00:40:18;;;;;;;7.32;6.63;;;;;;;;;;4877778;29;20473;-78
2022/08/03 00:42:57;;;;;;;7.45;6.63;;;;;;;;;;4879008;29;20048;-78
2022/08/03 00:45:27;;;;;;;8.23;6.50;;;;;;;;;;4878061;29;20057;-79
2022/08/03 00:47:53;;;;;;;8.73;6.60;;;;;;;;;;4878946;29;20081;-79
2022/08/03 00:50:21;;;;;;;7.32;6.47;;;;;;;;;;4877807;29;20404;-79
2022/08/03 00:52:47;;;;;;;7.35;6.30;;;;;;;;;;4878928;29;20041;-80
2022/08/03 00:55:13;;;;;;;8.55;7.30;;;;;;;;;;4877622;29;20488;-79
2022/08/03 00:57:40;;;;;;;6.93;6.32;;;;;;;;;;4879102;29;20101;-79
2022/08/03 01:00:07;;;;;;;6.20;5.65;;;;;;;;;;4861970;29;20112;-77
2022/08/03 01:02:33;;;;;;;7.20;5.72;;;;;;;;;;4877627;29;20045;-78
2022/08/03 01:04:58;;;;;;;7.32;6.00;;;;;;;;;;4878677;29;20053;-79
2022/08/03 01:07:35;;;;;;;6.85;5.85;;;;;;;;;;4879126;29;20245;-80
2022/08/03 01:10:02;;;;;;;6.80;5.95;;;;;;;;;;4878436;29;20609;-78
2022/08/03 01:12:44;;;;;;;6.10;5.68;;;;;;;;;;4862144;29;20083;-79
2022/08/03 01:15:19;;;;;;;6.47;5.97;;;;;;;;;;4878758;29;20047;-79
2022/08/03 01:18:03;;;;;;;8.38;6.40;;;;;;;;;;4878605;29;20478;-77
2022/08/03 01:20:31;;;;;;;6.70;6.20;;;;;;;;;;4877568;29;20144;-78
2022/08/03 01:23:21;;;;;;;7.75;6.40;;;;;;;;;;4861850;29;20551;-79
2022/08/03 01:26:07;;;;;;;6.43;5.93;;;;;;;;;;4880812;29;20097;-77
2022/08/03 01:28:53;;;;;;;7.00;6.32;;;;;;;;;;4877934;29;20101;-78
2022/08/03 01:31:21;;;;;;;7.28;6.57;;;;;;;;;;4872027;29;20121;-78
2022/08/03 01:33:48;;;;;;;9.40;7.18;;;;;;;;;;4877623;29;20445;-76
2022/08/03 01:36:25;;;;;;;7.45;6.68;;;;;;;;;;4877198;29;20402;-79
2022/08/03 01:38:52;;;;;;;7.15;6.32;;;;;;;;;;4877358;29;20049;-79
2022/08/03 01:41:24;;;;;;;7.47;5.93;;;;;;;;;;4877143;29;20049;-78
2022/08/03 01:43:50;;;;;;;6.82;6.07;;;;;;;;;;4861554;29;20052;-79
2022/08/03 01:46:16;;;;;;;10.70;6.85;;;;;;;;;;4878380;29;20041;-79
2022/08/03 01:48:42;;;;;;;7.05;6.03;;;;;;;;;;4877177;29;20049;-79
2022/08/03 01:51:08;;;;;;;7.18;6.40;;;;;;;;;;4876811;29;20045;-78
2022/08/03 01:53:34;;;;;;;7.00;6.32;;;;;;;;;;4880272;29;20049;-78
2022/08/03 01:56:00;;;;;;;6.82;6.32;;;;;;;;;;4886639;29;20053;-78
2022/08/03 01:58:25;;;;;;;6.32;5.82;;;;;;;;;;4861996;29;20056;-78
2022/08/03 02:00:52;;;;;;;7.65;6.18;;;;;;;;;;4877822;29;20040;-78
2022/08/03 02:03:17;;;;;;;7.82;7.22;;;;;;;;;;4877963;29;20132;-78
2022/08/03 02:05:44;;;;;;;7.32;6.63;;;;;;;;;;4876799;29;20578;-78
2022/08/03 02:08:11;;;;;;;8.18;6.38;;;;;;;;;;4876556;29;20059;-78
2022/08/03 02:10:37;;;;;;;9.57;6.95;;;;;;;;;;4877835;29;20109;-78
2022/08/03 02:13:04;;;;;;;7.40;6.20;;;;;;;;;;4876482;29;20045;-79
2022/08/03 02:15:30;;;;;;;7.13;6.38;;;;;;;;;;4876468;29;20048;-79
2022/08/03 02:17:56;;;;;;;7.15;5.95;;;;;;;;;;4877595;29;20104;-79
2022/08/03 02:20:22;;;;;;;6.70;5.88;;;;;;;;;;4876204;29;20131;-79
2022/08/03 02:22:48;;;;;;;6.60;6.00;;;;;;;;;;4877385;29;20045;-78
2022/08/03 02:25:14;;;;;;;6.55;6.05;;;;;;;;;;4877550;29;20041;-78
2022/08/03 02:27:42;;;;;;;5.93;5.40;;;;;;;;;;4877687;29;20211;-78
2022/08/03 02:30:08;;;;;;;6.25;5.65;;;;;;;;;;4860340;29;20083;-77
2022/08/03 02:32:36;;;;;;;6.72;6.13;;;;;;;;;;4880417;29;20041;-79
2022/08/03 02:35:02;;;;;;;6.85;5.82;;;;;;;;;;4880748;29;20041;-80
2022/08/03 02:37:30;;;;;;;6.40;5.90;;;;;;;;;;4879104;29;20049;-78
2022/08/03 02:39:57;;;;;;;6.53;5.93;;;;;;;;;;4875900;29;20048;-79
2022/08/03 02:42:23;;;;;;;8.52;6.00;;;;;;;;;;4860561;29;20045;-78
2022/08/03 02:44:49;;;;;;;11.55;5.95;;;;;;;;;;4876897;29;20128;-79
2022/08/03 02:47:15;;;;;;;6.78;6.18;;;;;;;;;;4860479;29;20137;-79
2022/08/03 02:49:41;;;;;;;6.13;5.68;;;;;;;;;;4875889;29;20558;-79
2022/08/03 02:52:08;;;;;;;6.65;6.15;;;;;;;;;;4875883;29;20057;-78
2022/08/03 02:54:34;;;;;;;7.88;6.05;;;;;;;;;;4877000;29;20079;-78
2022/08/03 02:57:00;;;;;;;6.80;6.20;;;;;;;;;;4876784;29;20056;-80
2022/08/03 02:59:29;;;;;;;9.13;6.60;;;;;;;;;;4875772;29;20573;-79
2022/08/03 03:01:55;;;;;;;6.93;6.37;;;;;;;;;;4876836;29;20539;-78
2022/08/03 03:04:21;;;;;;;6.88;5.80;;;;;;;;;;4875838;29;20080;-79
2022/08/03 03:06:47;;;;;;;7.35;6.40;;;;;;;;;;4875662;29;20128;-79
2022/08/03 03:09:13;;;;;;;10.27;6.07;;;;;;;;;;4876580;29;20061;-79
2022/08/03 03:11:39;;;;;;;7.68;6.00;;;;;;;;;;4875320;29;20048;-80
2022/08/03 03:14:05;;;;;;;6.97;6.28;;;;;;;;;;4860032;29;20463;-77
2022/08/03 03:16:31;;;;;;;6.97;6.30;;;;;;;;;;4875654;29;20044;-79
2022/08/03 03:18:56;;;;;;;9.57;6.30;;;;;;;;;;4876435;29;20084;-78
2022/08/03 03:21:22;;;;;;;7.10;6.45;;;;;;;;;;4876737;29;20108;-78
2022/08/03 03:23:48;;;;;;;14.32;6.43;;;;;;;;;;4861353;29;20052;-79
2022/08/03 03:26:14;;;;;;;7.03;6.32;;;;;;;;;;4888490;29;20056;-78
2022/08/03 03:28:40;;;;;;;6.68;6.03;;;;;;;;;;4886447;29;20182;-78
2022/08/03 03:31:06;;;;;;;7.20;6.22;;;;;;;;;;4869145;29;20056;-79
2022/08/03 03:33:32;;;;;;;6.75;6.22;;;;;;;;;;4876998;29;20426;-78
2022/08/03 03:35:58;;;;;;;6.88;6.10;;;;;;;;;;4859659;29;20487;-80
2022/08/03 03:38:24;;;;;;;7.00;6.45;;;;;;;;;;4876688;29;20040;-79
2022/08/03 03:40:50;;;;;;;7.00;6.50;;;;;;;;;;4875357;29;20052;-79
2022/08/03 03:43:17;;;;;;;7.25;6.55;;;;;;;;;;4876517;29;20132;-79
2022/08/03 03:45:43;;;;;;;8.43;6.90;;;;;;;;;;4876441;29;20510;-80
2022/08/03 03:48:08;;;;;;;7.15;6.65;;;;;;;;;;4890632;29;20104;-79
2022/08/03 03:50:35;;;;;;;6.68;6.03;;;;;;;;;;4880959;29;20041;-78
2022/08/03 03:53:01;;;;;;;7.35;6.63;;;;;;;;;;4878768;29;20048;-79
2022/08/03 03:55:27;;;;;;;8.38;6.43;;;;;;;;;;4876009;29;20622;-78
2022/08/03 03:57:53;;;;;;;9.13;6.88;;;;;;;;;;4880753;29;20045;-79
2022/08/03 04:00:19;;;;;;;7.65;7.05;;;;;;;;;;4865478;29;20160;-78
2022/08/03 04:02:45;;;;;;;7.07;6.43;;;;;;;;;;4882621;29;20041;-78
2022/08/03 04:10:59;;;;;;;7.15;6.55;;;;;;;;;;4865383;29;20140;-79
2022/08/03 04:13:46;;;;;;;9.43;6.28;;;;;;;;;;4881040;29;20052;-77
2022/08/03 04:16:12;;;;;;;10.57;6.70;;;;;;;;;;4881380;29;20049;-79
2022/08/03 04:18:38;;;;;;;7.53;6.15;;;;;;;;;;4882036;29;20049;-78
2022/08/03 04:21:05;;;;;;;7.30;5.97;;;;;;;;;;4880794;29;20123;-79
2022/08/03 04:23:33;;;;;;;6.95;6.00;;;;;;;;;;4881237;29;20522;-78
2022/08/03 04:25:59;;;;;;;6.30;5.80;;;;;;;;;;4880593;29;20044;-79
2022/08/03 04:28:25;;;;;;;6.80;6.10;;;;;;;;;;4881016;29;20073;-77
2022/08/03 04:30:52;;;;;;;8.50;6.28;;;;;;;;;;4878459;29;20152;-78
2022/08/03 04:33:18;;;;;;;8.32;6.57;;;;;;;;;;4880866;29;20095;-78
2022/08/03 04:35:44;;;;;;;10.18;6.18;;;;;;;;;;4865088;29;20176;-78
2022/08/03 04:38:11;;;;;;;8.60;5.43;;;;;;;;;;4864671;29;20041;-79
2022/08/03 04:40:38;;;;;;;9.65;6.35;;;;;;;;;;4880630;29;20048;-79
2022/08/03 04:43:04;;;;;;;11.57;6.28;;;;;;;;;;4881522;29;20033;-78
2022/08/03 04:45:30;;;;;;;8.82;6.10;;;;;;;;;;4881561;29;20536;-78
2022/08/03 04:47:56;;;;;;;7.15;5.93;;;;;;;;;;4880275;29;20105;-79
2022/08/03 04:50:22;;;;;;;7.30;6.00;;;;;;;;;;4881406;29;20458;-79
2022/08/03 04:53:04;;;;;;;9.27;6.28;;;;;;;;;;4880508;29;20087;-79
2022/08/03 04:55:30;;;;;;;13.48;5.82;;;;;;;;;;4881899;29;20049;-79
2022/08/03 04:57:56;;;;;;;7.47;5.57;;;;;;;;;;4881645;29;20684;-79
2022/08/03 05:00:23;;;;;;;7.10;5.55;;;;;;;;;;4881697;29;20257;-79
2022/08/03 05:02:49;;;;;;;9.20;6.20;;;;;;;;;;4849833;29;20077;-76
2022/08/03 05:05:15;;;;;;;7.05;5.72;;;;;;;;;;4881053;29;20814;-78
2022/08/03 05:07:41;;;;;;;9.95;5.72;;;;;;;;;;4881300;29;20053;-78
2022/08/03 05:10:08;;;;;;;5.97;5.40;;;;;;;;;;4878401;29;20061;-75
2022/08/03 05:12:34;;;;;;;5.90;5.35;;;;;;;;;;4879472;29;20143;-78
2022/08/03 05:15:00;;;;;;;17.48;6.60;;;;;;;;;;4878307;29;20123;-76
2022/08/03 05:17:26;;;;;;;6.72;6.05;;;;;;;;;;4878416;29;20045;-78
2022/08/03 05:19:52;;;;;;;6.25;5.75;;;;;;;;;;4878346;29;20037;-79
2022/08/03 05:22:18;;;;;;;11.38;6.03;;;;;;;;;;4878014;29;20053;-79
2022/08/03 05:24:44;;;;;;;12.30;6.40;;;;;;;;;;4878552;29;20045;-78
2022/08/03 05:27:16;;;;;;;8.18;6.03;;;;;;;;;;4877972;29;20090;-77
2022/08/03 05:29:42;;;;;;;8.07;5.60;;;;;;;;;;4878231;29;20060;-78
2022/08/03 05:32:08;;;;;;;9.85;6.07;;;;;;;;;;4861298;29;20048;-77
2022/08/03 05:34:34;;;;;;;8.00;5.40;;;;;;;;;;4878212;29;20403;-78
2022/08/03 05:37:00;;;;;;;9.23;5.55;;;;;;;;;;4878188;29;20506;-78
2022/08/03 05:39:26;;;;;;;7.93;5.85;;;;;;;;;;4880027;29;20487;-77
2022/08/03 05:41:52;;;;;;;8.13;5.18;;;;;;;;;;4865357;29;20421;-78
2022/08/03 05:44:18;;;;;;;6.28;5.30;;;;;;;;;;4877804;29;20044;-78
2022/08/03 05:46:44;;;;;;;9.15;5.43;;;;;;;;;;4877982;29;20041;-77
2022/08/03 05:49:10;;;;;;;6.10;5.30;;;;;;;;;;4877559;29;20121;-78
2022/08/03 05:51:36;;;;;;;7.65;5.55;;;;;;;;;;4877759;29;20056;-77
2022/08/03 05:54:02;;;;;;;6.07;4.32;;;;;;;;;;4877650;29;20544;-78
2022/08/03 05:56:28;;;;;;;5.65;5.15;;;;;;;;;;4860763;29;20136;-77
2022/08/03 05:58:54;;;;;;;6.75;5.50;;;;;;;;;;4861077;29;20073;-78
2022/08/03 06:01:21;;;;;;;5.43;4.95;;;;;;;;;;4877274;29;20045;-77
2022/08/03 06:03:47;;;;;;;10.88;5.65;;;;;;;;;;4861314;29;20045;-79
2022/08/03 06:06:13;;;;;;;8.95;5.40;;;;;;;;;;4877551;29;20582;-80
2022/08/03 06:08:39;;;;;;;8.88;5.07;;;;;;;;;;4878194;29;20049;-80
2022/08/03 06:11:05;;;;;;;8.20;5.20;;;;;;;;;;4860881;29;20053;-77
2022/08/03 06:13:31;;;;;;;11.65;5.40;;;;;;;;;;4877395;29;20128;-78
2022/08/03 06:15:57;;;;;;;11.40;5.45;;;;;;;;;;4877693;29;20418;-77
2022/08/03 06:18:23;;;;;;;6.50;4.47;;;;;;;;;;4877513;29;20060;-80
2022/08/03 06:20:49;;;;;;;5.80;4.50;;;;;;;;;;4877110;29;20048;-77
2022/08/03 06:23:15;;;;;;;7.60;5.10;;;;;;;;;;4877743;29;20127;-77
2022/08/03 06:25:41;;;;;;;5.28;4.75;;;;;;;;;;4878640;29;20044;-78
2022/08/03 06:28:07;;;;;;;4.85;4.45;;;;;;;;;;4885493;29;20060;-77
2022/08/03 06:30:33;;;;;;;5.97;4.28;;;;;;;;;;4872800;29;20166;-78
2022/08/03 06:32:59;;;;;;;4.93;4.55;;;;;;;;;;4889624;29;20104;-78
2022/08/03 06:35:26;;;;;;;5.60;4.75;;;;;;;;;;4863351;29;20090;-78
2022/08/03 06:37:52;;;;;;;7.75;5.15;;;;;;;;;;4877829;29;20144;-77
2022/08/03 06:40:27;;;;;;;7.13;4.50;;;;;;;;;;4876616;29;20044;-77
2022/08/03 06:42:54;;;;;;;5.15;4.65;;;;;;;;;;4877200;29;20037;-78
2022/08/03 06:45:20;;;;;;;5.10;4.80;;;;;;;;;;4876669;29;20052;-76
2022/08/03 06:47:46;;;;;;;4.50;4.20;;;;;;;;;;4877116;29;20049;-77
2022/08/03 06:50:12;;;;;;;9.57;4.90;;;;;;;;;;4877219;29;20060;-79
2022/08/03 06:52:37;;;;;;;6.47;4.97;;;;;;;;;;4877792;29;20049;-79
2022/08/03 06:55:04;;;;;;;9.10;4.90;;;;;;;;;;4876629;29;20132;-79
2022/08/03 06:57:30;;;;;;;10.27;5.47;;;;;;;;;;4876591;29;20049;-78
2022/08/03 07:00:00;;;;;;;6.28;5.10;;;;;;;;;;4876860;29;20123;-81
2022/08/03 07:02:27;;;;;;;5.53;4.43;;;;;;;;;;4876284;29;20085;-77
2022/08/03 07:04:54;;;;;;;8.70;4.90;;;;;;;;;;4876860;29;20053;-79
2022/08/03 07:07:20;;;;;;;4.80;4.45;;;;;;;;;;4876172;29;20085;-79
2022/08/03 07:09:47;;;;;;;5.72;4.63;;;;;;;;;;4876452;29;20099;-79
2022/08/03 07:12:13;;;;;;;6.60;4.78;;;;;;;;;;4859784;29;20036;-78
2022/08/03 07:14:38;;;;;;;6.38;4.65;;;;;;;;;;4876445;29;20434;-76
2022/08/03 07:17:04;;;;;;;5.22;4.45;;;;;;;;;;4876359;29;20084;-79
2022/08/03 07:19:30;;;;;;;4.80;4.40;;;;;;;;;;4876378;29;20084;-77
2022/08/03 07:21:57;;;;;;;8.98;4.38;;;;;;;;;;4876042;29;20101;-79
2022/08/03 07:24:23;;;;;;;6.85;4.18;;;;;;;;;;4859392;29;20077;-77
2022/08/03 07:26:49;;;;;;;8.27;3.70;;;;;;;;;;4876187;29;20454;-78
2022/08/03 07:29:15;;;;;;;5.63;4.03;;;;;;;;;;4859186;29;20048;-78
2022/08/03 07:31:41;;;;;;;8.82;3.97;;;;;;;;;;4859270;29;20052;-77
2022/08/03 07:34:07;;;;;;;6.85;3.70;;;;;;;;;;4880845;29;20060;-78
2022/08/03 07:36:33;;;;;;;5.38;3.60;;;;;;;;;;4876205;29;20084;-77
2022/08/03 07:38:59;;;;;;;4.25;3.85;;;;;;;;;;4844081;29;20076;-78
2022/08/03 07:41:25;;;;;;;5.97;4.03;;;;;;;;;;4858963;29;20595;-78
2022/08/03 07:43:52;;;;;;;4.95;4.10;;;;;;;;;;4876065;29;20100;-78
2022/08/03 07:46:18;;;;;;;8.00;4.03;;;;;;;;;;4875738;29;20083;-77
2022/08/03 07:48:43;;;;;;;3.70;3.40;;;;;;;;;;4876062;29;20064;-77
2022/08/03 07:51:09;;;;;;;9.65;3.35;;;;;;;;;;4875458;29;20065;-77
2022/08/03 07:53:35;;;;;;;6.88;3.70;;;;;;;;;;4875641;29;20043;-79
2022/08/03 07:56:01;;;;;;;5.53;3.88;;;;;;;;;;4875643;29;20060;-78
2022/08/03 07:58:27;;;;;;;5.25;4.07;;;;;;;;;;4875263;29;20049;-78
2022/08/03 08:00:53;;;;;;;4.35;3.22;;;;;;;;;;4875858;29;20047;-77
2022/08/03 08:03:20;;;;;;;3.65;3.35;;;;;;;;;;4875415;29;20467;-78
2022/08/03 08:05:46;;;;;;;12.00;3.53;;;;;;;;;;4875839;29;20131;-78
2022/08/03 08:08:13;;;;;;;12.07;3.78;;;;;;;;;;4875327;29;20041;-76
2022/08/03 08:10:39;;;;;;;3.75;3.10;;;;;;;;;;4858808;29;20053;-77
2022/08/03 08:13:05;;;;;;;3.47;3.20;;;;;;;;;;4877273;29;20053;-77
2022/08/03 08:15:31;;;;;;;3.30;3.00;;;;;;;;;;4875190;29;20053;-78
2022/08/03 08:17:59;;;;;;;2.97;2.70;;;;;;;;;;4875764;29;20051;-78
2022/08/03 08:20:29;;;;;;;3.07;2.70;;;;;;;;;;4875478;29;20109;-77
2022/08/03 08:22:55;;;;;;;3.30;3.00;;;;;;;;;;4875610;29;20869;-76
2022/08/03 08:25:21;;;;;;;4.32;3.92;;;;;;;;;;4875349;29;20068;-78
2022/08/03 08:27:48;;;;;;;2.60;2.40;;;;;;;;;;4875277;29;20514;-78
2022/08/03 08:30:15;;;;;;;3.50;2.90;;;;;;;;;;4875198;29;20045;-78
2022/08/03 08:32:41;;;;;;;3.63;3.33;;;;;;;;;;4875302;29;20136;-78
2022/08/03 08:35:07;;;;;;;3.67;3.38;;;;;;;;;;4859056;29;20427;-78
2022/08/03 08:37:33;;;;;;;4.60;3.30;;;;;;;;;;4875046;29;20554;-78
2022/08/03 08:39:59;;;;;;;4.50;3.20;;;;;;;;;;4875618;29;20084;-78
2022/08/03 08:42:25;;;;;;;3.42;3.13;;;;;;;;;;4875158;29;20049;-78
2022/08/03 08:44:51;;;;;;;3.50;3.20;;;;;;;;;;4862429;29;20041;-78
2022/08/03 08:47:17;;;;;;;3.67;3.30;;;;;;;;;;4878493;29;20219;-78
2022/08/03 08:49:43;;;;;;;9.73;3.45;;;;;;;;;;4879007;29;20429;-78
2022/08/03 08:52:09;;;;;;;4.07;2.95;;;;;;;;;;4862041;29;20049;-78
2022/08/03 08:54:35;;;;;;;3.20;2.90;;;;;;;;;;4878897;29;20048;-80
2022/08/03 08:57:02;;;;;;;4.78;2.92;;;;;;;;;;4862329;29;20598;-78
2022/08/03 08:59:33;;;;;;;6.47;3.40;;;;;;;;;;4862423;29;20742;-77
2022/08/03 09:01:59;;;;;;;3.50;3.30;;;;;;;;;;4878751;29;20045;-78
2022/08/03 09:04:25;;;;;;;3.78;3.30;;;;;;;;;;4878418;29;20052;-79
2022/08/03 09:06:51;;;;;;;5.60;3.20;;;;;;;;;;4862016;29;20199;-79
2022/08/03 09:09:17;;;;;;;5.22;3.40;;;;;;;;;;4861680;29;20135;-78
2022/08/03 09:11:43;;;;;;;4.28;3.15;;;;;;;;;;4878536;29;20123;-79
2022/08/03 09:14:09;;;;;;;7.63;3.25;;;;;;;;;;4878550;29;20459;-77
2022/08/03 09:16:34;;;;;;;9.23;3.47;;;;;;;;;;4861870;29;20439;-79
2022/08/03 09:19:12;;;;;;;7.50;3.30;;;;;;;;;;4861794;29;20049;-77
2022/08/03 09:21:38;;;;;;;6.43;3.45;;;;;;;;;;4878772;29;20105;-79
2022/08/03 09:24:04;;;;;;;7.15;3.88;;;;;;;;;;4879744;29;20072;-76
2022/08/03 09:26:30;;;;;;;8.18;4.10;;;;;;;;;;4868186;29;20072;-79
2022/08/03 09:28:57;;;;;;;6.45;3.65;;;;;;;;;;4880083;29;20426;-78
2022/08/03 09:31:30;;;;;;;5.85;3.58;;;;;;;;;;4880034;29;20136;-79
2022/08/03 09:33:58;;;;;;;6.22;3.53;;;;;;;;;;4886946;29;20057;-76
2022/08/03 09:36:41;;;;;;;3.83;3.00;;;;;;;;;;4875211;29;20041;-79
2022/08/03 09:39:11;;;;;;;6.18;3.47;;;;;;;;;;4869854;29;20140;-78
2022/08/03 09:41:37;;;;;;;;;;;;;;;;;;4878812;29;20049;-78
2022/08/03 09:44:03;;;;;;;3.72;3.42;;;;;;;;;;4861535;29;19922;-78
2022/08/03 09:46:30;;;;;;;8.15;3.55;;;;;;;;;;4877701;29;20080;-77
2022/08/03 09:49:09;;;;;;;7.43;3.95;;;;;;;;;;4861352;29;20788;-77
2022/08/03 09:51:35;;;;;;;11.27;3.70;;;;;;;;;;4877656;29;20096;-78
2022/08/03 09:54:03;;;;;;;8.93;3.70;;;;;;;;;;4861177;29;20053;-79
2022/08/03 09:56:45;;;;;;;6.82;3.25;;;;;;;;;;4860011;29;20470;-78
2022/08/03 09:59:12;;;;;;;3.72;3.40;;;;;;;;;;4877757;29;20430;-80
2022/08/03 10:01:40;;;;;;;7.78;3.65;;;;;;;;;;4861377;29;20036;-78
2022/08/03 10:04:10;;;;;;;3.83;3.47;;;;;;;;;;4877833;29;20514;-79
2022/08/03 10:06:35;;;;;;;;;;;;;;;;;;4877825;29;20041;-77
2022/08/03 10:09:06;;;;;;;4.10;3.40;;;;;;;;;;4877715;29;20019;-77
2022/08/03 10:11:33;;;;;;;5.65;4.10;;;;;;;;;;4877025;29;20052;-79
2022/08/03 10:14:03;;;;;;;5.40;3.88;;;;;;;;;;4877561;29;20044;-78
2022/08/03 10:16:32;;;;;;;6.45;3.40;;;;;;;;;;4876873;29;20068;-77
2022/08/03 10:18:58;;;;;;;4.43;3.53;;;;;;;;;;4877582;29;20428;-79
2022/08/03 10:21:24;;;;;;;5.65;3.47;;;;;;;;;;4876909;29;20041;-79
2022/08/03 10:23:50;;;;;;;9.60;3.67;;;;;;;;;;4877495;29;20144;-78
2022/08/03 10:26:17;;;;;;;4.15;3.78;;;;;;;;;;4860363;29;20085;-78
2022/08/03 10:28:46;;;;;;;4.05;3.40;;;;;;;;;;4877347;29;20072;-79
2022/08/03 10:31:12;;;;;;;4.33;3.47;;;;;;;;;;4860616;29;20500;-79
2022/08/03 10:33:41;;;;;;;3.80;3.50;;;;;;;;;;4860595;29;20133;-80
2022/08/03 10:36:07;;;;;;;5.18;3.65;;;;;;;;;;4877321;29;20045;-78
2022/08/03 10:38:55;;;;;;;4.28;3.90;;;;;;;;;;4876815;29;20041;-79
2022/08/03 10:41:21;;;;;;;4.10;3.53;;;;;;;;;;4876786;29;20041;-77
2022/08/03 10:44:04;;;;;;;4.07;3.70;;;;;;;;;;4877231;29;20051;-79
2022/08/03 10:46:30;;;;;;;4.07;3.72;;;;;;;;;;4860154;29;20108;-78
2022/08/03 10:48:56;;;;;;;4.57;3.60;;;;;;;;;;4877197;29;20514;-77
2022/08/03 10:51:22;;;;;;;3.78;3.38;;;;;;;;;;4876640;29;20461;-79
2022/08/03 10:53:48;;;;;;;8.20;4.13;;;;;;;;;;4877024;29;20041;-76
2022/08/03 10:59:17;;;;;;;5.00;3.97;;;;;;;;;;4876553;29;20048;-79
2022/08/03 11:01:47;;;;;;;3.85;3.50;;;;;;;;;;4860362;29;20073;-79
2022/08/03 11:04:13;;;;;;;;;;;;;;;;;;4877402;29;20044;-78
2022/08/03 11:06:39;;;;;;;4.38;3.55;;;;;;;;;;4877939;29;19916;-79
2022/08/03 11:09:08;;;;;;;5.50;3.40;;;;;;;;;;4861994;29;20046;-78
2022/08/03 11:11:34;;;;;;;7.32;3.97;;;;;;;;;;4876538;29;20060;-79
2022/08/03 11:14:06;;;;;;;7.75;3.50;;;;;;;;;;4876900;29;20075;-78
2022/08/03 11:16:44;;;;;;;5.50;3.58;;;;;;;;;;4879583;29;20207;-78
2022/08/03 11:19:11;;;;;;;4.03;3.63;;;;;;;;;;4882515;29;20087;-79
2022/08/03 11:21:49;;;;;;;5.03;3.72;;;;;;;;;;4875958;29;20044;-80
2022/08/03 11:24:34;;;;;;;5.10;3.40;;;;;;;;;;4876367;29;20088;-78
2022/08/03 11:27:15;;;;;;;7.13;3.50;;;;;;;;;;4876207;29;20598;-79
2022/08/03 11:30:01;;;;;;;4.07;3.03;;;;;;;;;;4876073;29;20057;-78
2022/08/03 11:32:37;;;;;;;5.47;3.80;;;;;;;;;;4875645;29;20105;-78
2022/08/03 11:35:06;;;;;;;7.38;3.65;;;;;;;;;;4876412;29;20052;-79
2022/08/03 11:37:32;;;;;;;9.50;3.67;;;;;;;;;;4875875;29;20088;-79
2022/08/03 11:39:58;;;;;;;4.65;3.50;;;;;;;;;;4859726;29;20128;-80
2022/08/03 11:42:24;;;;;;;3.65;3.30;;;;;;;;;;4876469;29;20060;-80
2022/08/03 11:44:50;;;;;;;6.18;3.40;;;;;;;;;;4876396;29;20136;-79
2022/08/03 11:47:16;;;;;;;3.75;3.45;;;;;;;;;;4875987;29;20127;-80
2022/08/03 11:49:43;;;;;;;6.20;3.50;;;;;;;;;;4875796;29;20057;-79
2022/08/03 11:52:09;;;;;;;4.60;3.60;;;;;;;;;;4859386;29;20044;-80
2022/08/03 11:54:35;;;;;;;5.90;3.60;;;;;;;;;;4875624;29;20518;-79
2022/08/03 11:57:01;;;;;;;4.75;3.83;;;;;;;;;;4859173;29;20060;-79
2022/08/03 11:59:31;;;;;;;5.68;3.88;;;;;;;;;;4858877;29;20041;-78
2022/08/03 12:02:06;;;;;;;6.35;3.75;;;;;;;;;;4876004;29;20052;-79
2022/08/03 12:04:48;;;;;;;6.30;3.80;;;;;;;;;;4859073;29;20049;-80
2022/08/03 12:07:14;;;;;;;4.38;3.92;;;;;;;;;;4859003;29;20045;-79
2022/08/03 12:09:40;;;;;;;4.20;3.90;;;;;;;;;;4875765;29;20985;-80
2022/08/03 12:12:06;;;;;;;8.38;4.25;;;;;;;;;;4875883;29;20045;-79
2022/08/03 12:14:32;;;;;;;5.15;4.30;;;;;;;;;;4875454;29;20061;-77
2022/08/03 12:16:58;;;;;;;4.50;4.10;;;;;;;;;;4875826;29;20045;-78
2022/08/03 12:19:24;;;;;;;5.68;3.92;;;;;;;;;;4861778;29;20060;-79
2022/08/03 12:21:50;;;;;;;5.35;4.18;;;;;;;;;;4862898;29;20049;-78
2022/08/03 12:24:16;;;;;;;4.60;3.70;;;;;;;;;;4879508;29;20037;-78
2022/08/03 12:26:46;;;;;;;3.67;3.47;;;;;;;;;;4879369;29;20451;-79
2022/08/03 12:29:21;;;;;;;5.13;3.70;;;;;;;;;;4879662;29;20045;-81
2022/08/03 12:31:48;;;;;;;3.70;3.40;;;;;;;;;;4879358;29;20053;-79
2022/08/03 12:34:14;;;;;;;4.00;3.45;;;;;;;;;;4879854;29;20041;-78
2022/08/03 12:36:49;;;;;;;3.70;3.50;;;;;;;;;;4879282;29;20045;-79
2022/08/03 12:39:15;;;;;;;8.60;4.20;;;;;;;;;;4879656;29;20135;-78
2022/08/03 12:41:41;;;;;;;3.75;3.55;;;;;;;;;;4879872;29;20128;-78
2022/08/03 12:44:08;;;;;;;4.13;3.72;;;;;;;;;;4875272;29;20047;-78
2022/08/03 12:46:37;;;;;;;7.90;4.00;;;;;;;;;;4891436;29;20033;-77
2022/08/03 12:49:06;;;;;;;5.15;3.78;;;;;;;;;;4883579;29;20136;-80
2022/08/03 12:51:36;;;;;;;3.80;3.50;;;;;;;;;;4862219;29;20052;-79
2022/08/03 12:54:02;;;;;;;7.65;3.78;;;;;;;;;;4879058;29;20573;-80
2022/08/03 12:56:28;;;;;;;4.10;3.67;;;;;;;;;;4878812;29;20141;-80
2022/08/03 12:58:54;;;;;;;8.50;4.13;;;;;;;;;;4879130;29;20048;-79
2022/08/03 13:01:22;;;;;;;4.38;4.00;;;;;;;;;;4879007;29;20044;-81
2022/08/03 13:03:49;;;;;;;4.28;3.88;;;;;;;;;;4862921;29;20055;-78
2022/08/03 13:06:24;;;;;;;6.05;4.22;;;;;;;;;;4862222;29;20067;-79
2022/08/03 13:09:06;;;;;;;4.63;4.07;;;;;;;;;;4886465;29;20073;-79
2022/08/03 13:11:32;;;;;;;5.47;4.10;;;;;;;;;;4880211;29;20514;-80
2022/08/03 13:13:58;;;;;;;4.82;3.97;;;;;;;;;;4862234;29;20045;-78
2022/08/03 13:16:24;;;;;;;4.90;4.20;;;;;;;;;;4878669;29;20052;-79
2022/08/03 13:18:50;;;;;;;4.45;4.15;;;;;;;;;;4878791;29;20049;-78
2022/08/03 13:21:16;;;;;;;7.32;4.30;;;;;;;;;;4861657;29;20044;-79
2022/08/03 13:23:42;;;;;;;5.65;3.92;;;;;;;;;;4862566;29;20053;-79
2022/08/03 13:26:09;;;;;;;4.22;3.83;;;;;;;;;;4846989;29;20537;-79
2022/08/03 13:28:35;;;;;;;5.93;4.03;;;;;;;;;;4877955;29;20049;-79
2022/08/03 13:31:01;;;;;;;7.85;3.83;;;;;;;;;;4877045;29;20064;-78
2022/08/03 13:33:27;;;;;;;7.70;4.20;;;;;;;;;;4877935;29;20072;-79
2022/08/03 13:35:53;;;;;;;5.60;3.50;;;;;;;;;;4878467;29;20053;-78
2022/08/03 13:38:19;;;;;;;6.97;3.88;;;;;;;;;;4878056;29;20052;-80
2022/08/03 13:40:45;;;;;;;4.05;3.70;;;;;;;;;;4878023;29;20053;-78
2022/08/03 13:43:11;;;;;;;3.88;3.50;;;;;;;;;;4878120;29;20048;-79
2022/08/03 13:45:37;;;;;;;7.65;4.10;;;;;;;;;;4877908;29;20049;-80
2022/08/03 13:48:03;;;;;;;7.93;4.03;;;;;;;;;;4878033;29;20056;-79
2022/08/03 13:50:30;;;;;;;7.07;4.30;;;;;;;;;;4877696;29;20063;-79
2022/08/03 13:52:56;;;;;;;8.05;4.07;;;;;;;;;;4877983;29;20085;-78
2022/08/03 13:55:22;;;;;;;8.98;4.05;;;;;;;;;;4877858;29;20053;-80
2022/08/03 13:57:48;;;;;;;7.05;4.00;;;;;;;;;;4860639;29;20083;-79
2022/08/03 14:00:14;;;;;;;7.53;3.80;;;;;;;;;;4845556;29;20048;-80
2022/08/03 14:02:40;;;;;;;6.40;3.67;;;;;;;;;;4860252;29;20057;-80
2022/08/03 14:05:07;;;;;;;12.45;4.25;;;;;;;;;;4877567;29;20048;-78
2022/08/03 14:07:32;;;;;;;7.75;3.50;;;;;;;;;;4876972;29;20344;-79
2022/08/03 14:10:00;;;;;;;4.10;3.80;;;;;;;;;;4877369;29;20428;-79
2022/08/03 14:12:26;;;;;;;5.05;3.88;;;;;;;;;;4877396;29;20117;-79
2022/08/03 14:14:52;;;;;;;4.43;4.03;;;;;;;;;;4877269;29;20455;-78
2022/08/03 14:17:18;;;;;;;9.80;4.28;;;;;;;;;;4877211;29;20044;-79
2022/08/03 14:19:44;;;;;;;11.32;4.60;;;;;;;;;;4877124;29;20520;-79
2022/08/03 14:22:10;;;;;;;6.32;4.00;;;;;;;;;;4877455;29;20049;-79
2022/08/03 14:24:36;;;;;;;6.05;4.30;;;;;;;;;;4860456;29;20045;-78
2022/08/03 14:27:02;;;;;;;10.73;3.97;;;;;;;;;;4877262;29;20140;-79
2022/08/03 14:29:27;;;;;;;11.77;4.55;;;;;;;;;;4877132;29;20037;-78
2022/08/03 14:31:53;;;;;;;8.85;4.20;;;;;;;;;;4876941;29;20645;-79
2022/08/03 14:34:19;;;;;;;6.00;4.03;;;;;;;;;;4860488;29;20063;-79
2022/08/03 14:36:46;;;;;;;8.43;4.28;;;;;;;;;;4876674;29;20541;-79
2022/08/03 14:39:12;;;;;;;4.88;4.28;;;;;;;;;;4877264;29;20094;-78
2022/08/03 14:41:38;;;;;;;8.52;4.30;;;;;;;;;;4876382;29;20053;-79
2022/08/03 14:44:04;;;;;;;5.40;4.38;;;;;;;;;;4876819;29;20104;-79
2022/08/03 14:46:30;;;;;;;7.10;4.20;;;;;;;;;;4876629;29;20080;-79
2022/08/03 14:48:57;;;;;;;11.05;4.30;;;;;;;;;;4876763;29;20474;-81
2022/08/03 14:51:23;;;;;;;10.13;4.30;;;;;;;;;;4876622;29;20064;-80
2022/08/03 14:53:49;;;;;;;7.25;4.55;;;;;;;;;;4876451;29;20037;-80